createdAt,value
2022-12-11T08:39:59.110Z,100470.50
2022-12-11T08:42:25.598Z,100468.09
2022-12-11T08:44:52.201Z,100465.03
2022-12-11T08:47:18.679Z,100466.00
2022-12-11T08:49:45.117Z,100477.53
2022-12-11T08:52:11.719Z,100463.34
2022-12-11T08:54:38.394Z,100472.34
2022-12-11T08:57:04.813Z,100468.25
2022-12-11T08:59:31.516Z,100469.41
2022-12-11T09:01:58.588Z,100465.03
2022-12-11T09:04:25.004Z,100469.22
2022-12-11T09:06:51.347Z,100479.22
2022-12-11T09:09:18.703Z,100478.09
2022-12-11T09:11:45.382Z,100474.00
2022-12-11T09:14:11.725Z,100470.50
2022-12-11T09:16:40.447Z,100470.25
2022-12-11T09:19:08.157Z,100471.63
2022-12-11T09:21:34.669Z,100475.00
2022-12-11T09:24:03.016Z,100468.13
2022-12-11T09:26:30.137Z,100474.31
2022-12-11T09:28:59.286Z,100467.97
2022-12-11T09:31:27.231Z,100473.44
2022-12-11T09:34:01.126Z,100452.66
2022-12-11T09:36:27.992Z,100474.88
2022-12-11T09:38:54.705Z,100473.88
2022-12-11T09:41:22.945Z,100478.06
2022-12-11T09:43:49.302Z,100475.56
2022-12-11T09:46:17.281Z,100472.47
2022-12-11T09:48:47.224Z,100474.00
2022-12-11T09:51:37.411Z,100476.81
2022-12-11T09:54:04.478Z,100474.88
2022-12-11T09:56:39.403Z,100476.13
2022-12-11T09:59:38.882Z,100474.88
2022-12-11T10:02:37.375Z,100475.72
2022-12-11T10:05:21.374Z,100464.19
2022-12-11T10:07:51.781Z,100459.13
2022-12-11T10:10:27.413Z,100458.13
2022-12-11T10:12:56.842Z,100460.25
2022-12-11T10:15:26.577Z,100451.81
2022-12-11T10:17:58.601Z,100453.78
2022-12-11T10:20:35.150Z,100445.66
2022-12-11T10:23:02.388Z,100449.28
2022-12-11T10:25:41.396Z,100440.72
2022-12-11T10:28:15.732Z,100437.50
2022-12-11T10:30:59.982Z,100442.00
2022-12-11T10:33:52.780Z,100434.22
2022-12-11T10:36:25.448Z,100437.34
2022-12-11T10:38:52.465Z,100433.72
2022-12-11T10:41:31.208Z,100430.16
2022-12-11T10:43:57.579Z,100432.72
2022-12-11T10:46:25.720Z,100429.34
2022-12-11T10:48:55.796Z,100431.75
2022-12-11T10:51:23.904Z,100421.47
2022-12-11T10:53:55.316Z,100416.97
2022-12-11T10:56:26.111Z,100414.16
2022-12-11T10:58:52.578Z,100416.69
2022-12-11T11:01:21.353Z,100409.94
2022-12-11T11:03:53.744Z,100413.03
2022-12-11T11:06:21.114Z,100406.50
2022-12-11T11:08:49.384Z,100411.88
2022-12-11T11:11:33.961Z,100402.19
2022-12-11T11:14:09.986Z,100413.03
2022-12-11T11:16:37.683Z,100401.50
2022-12-11T11:19:04.288Z,100393.88
2022-12-11T11:21:31.761Z,100396.81
2022-12-11T11:23:58.502Z,100398.19
2022-12-11T11:26:38.299Z,100394.69
2022-12-11T11:29:22.329Z,100391.28
2022-12-11T11:31:49.051Z,100389.25
2022-12-11T11:34:18.627Z,100385.81
2022-12-11T11:36:55.100Z,100386.97
2022-12-11T11:39:22.041Z,100381.75
2022-12-11T11:41:52.553Z,100378.38
2022-12-11T11:44:25.401Z,100373.38
2022-12-11T11:46:58.022Z,100374.13
2022-12-11T11:49:30.603Z,100371.00
2022-12-11T11:52:06.061Z,100376.06
2022-12-11T11:54:37.396Z,100380.16
2022-12-11T11:57:23.096Z,100377.28
2022-12-11T11:59:53.699Z,100372.97
2022-12-11T12:02:20.769Z,100381.75
2022-12-11T12:04:47.763Z,100374.16
2022-12-11T12:07:14.226Z,100373.59
2022-12-11T12:09:59.776Z,100363.78
2022-12-11T12:12:40.042Z,100369.44
2022-12-11T12:15:21.800Z,100370.31
2022-12-11T12:17:52.015Z,100373.09
2022-12-11T12:20:38.741Z,100364.53
2022-12-11T12:23:24.248Z,100369.69
2022-12-11T12:25:58.765Z,100370.78
2022-12-11T12:28:38.156Z,100372.16
2022-12-11T12:31:17.079Z,100359.19
2022-12-11T12:34:02.397Z,100361.19
2022-12-11T12:36:41.682Z,100354.41
2022-12-11T12:39:08.070Z,100358.38
2022-12-11T12:41:37.487Z,100354.56
2022-12-11T12:44:13.553Z,100347.69
2022-12-11T12:46:47.555Z,100342.22
2022-12-11T12:49:16.775Z,100340.28
2022-12-11T12:51:44.436Z,100339.00
2022-12-11T12:54:17.145Z,100339.00
2022-12-11T12:56:47.750Z,100337.56
2022-12-11T12:59:21.698Z,100335.88
2022-12-11T13:01:52.284Z,100339.81
2022-12-11T13:04:54.544Z,100333.63
2022-12-11T13:07:27.196Z,100339.50
2022-12-11T13:10:26.462Z,100337.81
2022-12-11T13:12:53.134Z,100337.50
2022-12-11T13:15:26.968Z,100339.75
2022-12-11T13:17:57.930Z,100341.97
2022-12-11T13:20:34.709Z,100343.13
2022-12-11T13:23:07.504Z,100347.03
2022-12-11T13:25:46.287Z,100347.03
2022-12-11T13:28:33.523Z,100345.59
2022-12-11T13:31:01.451Z,100342.75
2022-12-11T13:33:29.980Z,100338.00
2022-12-11T13:36:13.157Z,100336.03
2022-12-11T13:38:49.929Z,100339.09
2022-12-11T13:41:18.922Z,100344.44
2022-12-11T13:43:46.619Z,100343.28
2022-12-11T13:46:16.243Z,100335.97
2022-12-11T13:48:51.711Z,100342.75
2022-12-11T13:51:19.753Z,100350.94
2022-12-11T13:53:46.635Z,100360.22
2022-12-11T13:56:18.087Z,100351.00
2022-12-11T13:58:44.694Z,100349.84
2022-12-11T14:01:13.278Z,100355.03
2022-12-11T14:03:41.591Z,100364.59
2022-12-11T14:06:16.571Z,100360.09
2022-12-11T14:09:11.277Z,100360.91
2022-12-11T14:11:50.925Z,100367.31
2022-12-11T14:18:17.829Z,100363.09
2022-12-11T14:21:06.312Z,100353.53
2022-12-11T14:23:57.464Z,100359.19
2022-12-11T14:26:49.579Z,100362.25
2022-12-11T14:29:36.289Z,100364.63
2022-12-11T14:32:34.311Z,100367.31
2022-12-11T14:35:38.435Z,100365.09
2022-12-11T14:38:29.055Z,100371.56
2022-12-11T14:41:18.778Z,100370.72
2022-12-11T14:44:06.477Z,100374.53
2022-12-11T14:46:55.562Z,100377.88
2022-12-11T14:50:03.046Z,100373.78
2022-12-11T14:52:59.583Z,100377.16
2022-12-11T14:55:48.129Z,100378.81
2022-12-11T14:58:39.600Z,100378.81
2022-12-11T15:01:31.084Z,100379.25
2022-12-11T15:04:27.627Z,100375.19
2022-12-11T15:07:21.048Z,100386.19
2022-12-11T15:10:22.235Z,100379.09
2022-12-11T15:13:09.726Z,100389.13
2022-12-11T15:15:56.743Z,100388.53
2022-12-11T15:18:43.554Z,100382.19
2022-12-11T15:21:37.652Z,100377.44
2022-12-11T15:24:38.258Z,100380.56
2022-12-11T15:27:27.978Z,100378.44
2022-12-11T15:30:17.791Z,100379.25
2022-12-11T15:33:15.424Z,100384.31
2022-12-11T15:36:03.742Z,100391.66
2022-12-11T15:38:50.556Z,100389.00
2022-12-11T15:41:37.264Z,100389.28
2022-12-11T15:44:24.019Z,100397.72
2022-12-11T15:47:14.668Z,100397.72
2022-12-11T15:50:03.081Z,100389.28
2022-12-11T15:52:50.780Z,100394.31
2022-12-11T15:55:38.788Z,100393.63
2022-12-11T15:58:27.381Z,100393.47
2022-12-11T16:01:14.194Z,100396.56
2022-12-11T16:04:04.922Z,100396.00
2022-12-11T16:06:51.992Z,100392.94
2022-12-11T16:09:38.700Z,100396.28
2022-12-11T16:12:28.468Z,100399.25
2022-12-11T16:15:22.838Z,100397.16
2022-12-11T16:18:11.341Z,100391.97
2022-12-11T16:20:58.057Z,100398.56
2022-12-11T16:23:44.836Z,100387.47
2022-12-11T16:26:31.534Z,100394.34
2022-12-11T16:29:18.263Z,100397.16
2022-12-11T16:32:07.039Z,100397.31
2022-12-11T16:34:54.096Z,100403.91
2022-12-11T16:37:40.823Z,100394.19
2022-12-11T16:40:27.637Z,100392.75
2022-12-11T16:43:14.324Z,100400.09
2022-12-11T16:46:01.072Z,100394.06
2022-12-11T16:48:47.883Z,100392.97
2022-12-11T16:51:34.577Z,100391.97
2022-12-11T16:54:21.292Z,100393.91
2022-12-11T16:57:08.030Z,100396.44
2022-12-11T16:59:55.026Z,100390.41
2022-12-11T17:02:42.010Z,100394.47
2022-12-11T17:05:28.634Z,100386.16
2022-12-11T17:08:15.471Z,100383.19
2022-12-11T17:11:09.944Z,100378.00
2022-12-11T17:13:57.466Z,100380.97
2022-12-11T17:16:44.225Z,100382.41
2022-12-11T17:19:30.960Z,100391.22
2022-12-11T17:22:17.811Z,100382.53
2022-12-11T17:25:04.691Z,100381.53
2022-12-11T17:27:51.440Z,100381.53
2022-12-11T17:30:42.886Z,100387.03
2022-12-11T17:33:29.707Z,100381.41
2022-12-11T17:36:18.057Z,100387.47
2022-12-11T17:39:04.761Z,100381.97
2022-12-11T17:41:51.414Z,100379.16
2022-12-11T17:44:38.812Z,100381.41
2022-12-11T17:47:25.472Z,100379.06
2022-12-11T17:50:12.186Z,100391.28
2022-12-11T17:52:58.824Z,100381.75
2022-12-11T17:55:45.576Z,100385.66
2022-12-11T17:58:32.846Z,100381.13
2022-12-11T18:01:19.684Z,100378.31
2022-12-11T18:04:06.492Z,100373.72
2022-12-11T18:06:53.495Z,100381.28
2022-12-11T18:09:40.666Z,100376.94
2022-12-11T18:12:27.472Z,100381.59
2022-12-11T18:15:15.006Z,100379.75
2022-12-11T18:18:01.696Z,100381.41
2022-12-11T18:20:51.977Z,100383.72
2022-12-11T18:23:38.752Z,100384.28
2022-12-11T18:26:25.534Z,100379.75
2022-12-11T18:29:14.647Z,100396.97
2022-12-11T18:32:01.372Z,100387.94
2022-12-11T18:34:48.261Z,100392.28
2022-12-11T18:37:35.122Z,100398.06
2022-12-11T18:40:21.793Z,100393.72
2022-12-11T18:43:11.533Z,100389.09
2022-12-11T18:45:58.252Z,100390.94
2022-12-11T18:48:45.922Z,100393.63
2022-12-11T18:51:33.012Z,100397.69
2022-12-11T18:54:20.951Z,100393.06
2022-12-11T18:57:07.835Z,100396.00
2022-12-11T18:59:54.685Z,100392.78
2022-12-11T19:02:41.464Z,100392.19
2022-12-11T19:05:29.113Z,100388.81
2022-12-11T19:08:16.615Z,100393.75
2022-12-11T19:11:03.888Z,100382.66
2022-12-11T19:13:51.303Z,100395.81
2022-12-11T19:16:39.300Z,100397.53
2022-12-11T19:19:26.035Z,100393.16
2022-12-11T19:22:12.963Z,100392.34
2022-12-11T19:24:59.601Z,100389.38
2022-12-11T19:27:46.698Z,100392.88
2022-12-11T19:30:33.446Z,100392.19
2022-12-11T19:33:20.129Z,100396.16
2022-12-11T19:36:11.315Z,100385.31
2022-12-11T19:39:01.957Z,100384.19
2022-12-11T19:41:49.735Z,100391.19
2022-12-11T19:44:36.515Z,100392.19
2022-12-11T19:47:23.601Z,100390.19
2022-12-11T19:50:10.523Z,100384.19
2022-12-11T19:52:57.304Z,100386.56
2022-12-11T19:55:50.925Z,100383.47
2022-12-11T19:58:44.549Z,100377.59
2022-12-11T20:01:37.874Z,100380.00
2022-12-11T20:04:28.600Z,100383.94
2022-12-11T20:07:30.930Z,100384.66
2022-12-11T20:10:22.727Z,100381.56
2022-12-11T20:13:16.232Z,100386.63
2022-12-11T20:16:07.361Z,100383.50
2022-12-11T20:19:18.360Z,100386.88
2022-12-11T20:22:11.564Z,100382.66
2022-12-11T20:24:58.368Z,100383.38
2022-12-11T20:27:45.383Z,100379.59
2022-12-11T20:30:32.250Z,100381.56
2022-12-11T20:33:18.960Z,100374.69
2022-12-11T20:36:12.572Z,100379.88
2022-12-11T20:38:59.785Z,100381.84
2022-12-11T20:42:07.687Z,100376.78
2022-12-11T20:44:54.490Z,100374.25
2022-12-11T20:47:41.370Z,100375.78
2022-12-11T20:50:28.061Z,100378.47
2022-12-11T20:53:15.063Z,100371.00
2022-12-11T20:56:01.915Z,100381.00
2022-12-11T20:58:48.682Z,100373.41
2022-12-11T21:01:35.411Z,100374.78
2022-12-11T21:04:48.130Z,100381.00
2022-12-11T21:07:34.898Z,100380.72
2022-12-11T21:10:21.740Z,100374.78
2022-12-11T21:13:08.365Z,100381.00
2022-12-11T21:15:56.801Z,100381.00
2022-12-11T21:18:44.280Z,100385.03
2022-12-11T21:21:40.517Z,100383.38
2022-12-11T21:24:28.643Z,100377.59
2022-12-11T21:27:15.365Z,100372.03
2022-12-11T21:30:02.078Z,100381.56
2022-12-11T21:32:48.814Z,100377.06
2022-12-11T21:35:35.555Z,100387.06
2022-12-11T21:38:22.969Z,100384.97
2022-12-11T21:41:14.345Z,100387.78
2022-12-11T21:47:07.672Z,100375.41
2022-12-11T21:49:54.679Z,100380.16
2022-12-11T21:52:41.363Z,100375.13
2022-12-11T21:55:28.539Z,100383.00
2022-12-11T21:58:15.683Z,100374.72
2022-12-11T22:01:03.490Z,100380.50
2022-12-11T22:03:50.748Z,100382.88
2022-12-11T22:06:37.884Z,100384.72
2022-12-11T22:09:24.559Z,100389.50
2022-12-11T22:12:24.865Z,100394.84
2022-12-11T22:15:11.782Z,100399.88
2022-12-11T22:17:58.602Z,100397.75
2022-12-11T22:20:45.543Z,100400.97
2022-12-11T22:23:32.224Z,100407.56
2022-12-11T22:26:20.614Z,100411.63
2022-12-11T22:29:07.784Z,100413.59
2022-12-11T22:31:54.795Z,100416.25
2022-12-11T22:34:41.453Z,100413.31
2022-12-11T22:37:28.966Z,100413.16
2022-12-11T22:40:15.600Z,100417.41
2022-12-11T22:43:02.330Z,100421.47
2022-12-11T22:45:29.182Z,100417.16
2022-12-11T22:47:55.819Z,100419.09
2022-12-11T22:50:22.253Z,100414.63
2022-12-11T22:52:48.687Z,100421.22
2022-12-11T22:55:15.247Z,100418.28
2022-12-11T22:57:41.808Z,100411.66
2022-12-11T23:00:10.627Z,100422.59
2022-12-11T23:02:37.439Z,100414.63
2022-12-11T23:05:05.403Z,100415.59
2022-12-11T23:07:35.305Z,100417.28
2022-12-11T23:10:01.966Z,100417.81
2022-12-11T23:12:29.103Z,100416.84
2022-12-11T23:15:05.709Z,100417.97
2022-12-11T23:18:32.996Z,100419.09
2022-12-11T23:21:01.592Z,100419.50
2022-12-11T23:23:28.286Z,100427.66
2022-12-11T23:25:55.496Z,100429.06
2022-12-11T23:28:22.503Z,100427.41
2022-12-11T23:30:49.030Z,100429.66
2022-12-11T23:33:15.551Z,100433.13
2022-12-11T23:35:42.080Z,100418.84
2022-12-11T23:38:08.540Z,100420.38
2022-12-11T23:40:35.008Z,100424.03
2022-12-11T23:43:01.518Z,100421.91
2022-12-11T23:45:27.894Z,100424.03
2022-12-11T23:47:54.277Z,100432.88
2022-12-11T23:50:20.691Z,100423.16
2022-12-11T23:52:47.174Z,100431.16
2022-12-11T23:55:14.064Z,100430.34
2022-12-11T23:57:41.007Z,100441.81
